Time;durP1;ratioP1;P1;durP2;ratioP2;P2;SDS_P1;SDS_P2;PMS_P1;PMS_P2;Temp;Humidity;BMP_temperature;BMP_pressure;BME280_temperature;BME280_humidity;BME280_pressure;Samples;Min_cycle;Max_cycle;Signal;HPM_P1;HPM_P2
2022/12/28 00:01:20;;;;;;;2.28;0.90;;;;;;;3.76;96.71;101185.41;6240164;22;20016;-74
2022/12/28 00:03:47;;;;;;;3.70;0.95;;;;;;;3.75;96.50;101168.13;6270580;22;20016;-75
2022/12/28 00:06:14;;;;;;;3.78;1.08;;;;;;;3.73;96.70;101172.34;6241286;22;20079;-75
2022/12/28 00:08:42;;;;;;;4.55;1.25;;;;;;;3.71;96.59;101168.88;6218555;22;20012;-74
2022/12/28 00:11:13;;;;;;;1.45;0.93;;;;;;;3.72;96.43;101166.31;6272116;22;20022;-75
2022/12/28 00:13:41;;;;;;;3.40;0.93;;;;;;;3.72;96.31;101155.09;6245824;22;20014;-74
2022/12/28 00:16:29;;;;;;;2.65;0.93;;;;;;;3.67;96.28;101149.78;6246066;22;20014;-75
2022/12/28 00:18:58;;;;;;;1.30;0.82;;;;;;;3.62;96.75;101146.19;6224359;22;20015;-74
2022/12/28 00:21:25;;;;;;;3.60;1.20;;;;;;;3.56;96.83;101133.06;6244704;22;20019;-75
2022/12/28 00:23:54;;;;;;;2.65;1.38;;;;;;;3.47;97.41;101137.16;6245723;22;20026;-75
2022/12/28 00:26:21;;;;;;;5.78;1.15;;;;;;;3.43;97.66;101127.56;6244993;22;20018;-75
2022/12/28 00:28:49;;;;;;;7.20;1.05;;;;;;;3.41;97.74;101130.94;6245243;22;20011;-74
2022/12/28 00:31:16;;;;;;;1.40;0.70;;;;;;;3.35;98.05;101131.66;6243024;22;20023;-74
2022/12/28 00:33:43;;;;;;;7.05;1.20;;;;;;;3.31;98.29;101122.03;6244931;22;20026;-74
2022/12/28 00:36:12;;;;;;;1.67;1.42;;;;;;;3.29;98.33;101116.81;6219465;22;20011;-73
2022/12/28 00:38:39;;;;;;;3.25;1.00;;;;;;;3.23;98.62;101124.41;6245267;22;20103;-73
2022/12/28 00:41:06;;;;;;;2.33;1.05;;;;;;;3.14;98.83;101126.72;6245309;22;20019;-74
2022/12/28 00:43:33;;;;;;;3.15;0.85;;;;;;;3.12;99.56;101118.06;6245445;22;20011;-74
2022/12/28 00:45:59;;;;;;;1.67;1.23;;;;;;;3.10;99.56;101114.53;6245246;22;20011;-74
2022/12/28 00:48:26;;;;;;;3.58;1.77;;;;;;;3.11;99.83;101111.13;6245188;22;20046;-74
2022/12/28 00:50:53;;;;;;;1.05;0.90;;;;;;;3.08;99.95;101100.69;6245923;22;20114;-74
2022/12/28 00:53:19;;;;;;;6.93;1.52;;;;;;;3.07;99.91;101093.75;6244817;22;20012;-74
2022/12/28 00:55:46;;;;;;;5.20;1.27;;;;;;;3.02;99.99;101098.78;6245591;22;20014;-75
2022/12/28 00:58:13;;;;;;;3.25;1.20;;;;;;;3.02;100.00;101079.81;6272095;22;20067;-74
2022/12/28 01:00:40;;;;;;;3.20;0.73;;;;;;;3.04;100.00;101079.03;6272791;22;20011;-74
2022/12/28 01:03:06;;;;;;;1.23;1.00;;;;;;;3.05;99.69;101072.13;6244491;22;20012;-74
2022/12/28 01:05:33;;;;;;;3.67;1.65;;;;;;;3.08;99.30;101067.06;6245782;22;20012;-74
2022/12/28 01:07:59;;;;;;;1.38;1.02;;;;;;;3.11;99.22;101056.78;6244951;22;20007;-74
2022/12/28 01:10:26;;;;;;;2.42;1.33;;;;;;;3.16;98.63;101057.81;6220418;22;20019;-74
2022/12/28 01:12:53;;;;;;;4.57;1.38;;;;;;;3.16;98.51;101047.47;6244301;22;20647;-75
2022/12/28 01:15:20;;;;;;;1.77;0.95;;;;;;;3.22;98.08;101049.31;6219038;22;20019;-75
2022/12/28 01:17:46;;;;;;;3.40;1.13;;;;;;;3.23;98.10;101046.78;6244246;22;20299;-75
2022/12/28 01:20:13;;;;;;;4.38;0.75;;;;;;;3.25;97.94;101037.34;6243815;22;20007;-75
2022/12/28 01:22:39;;;;;;;3.55;1.17;;;;;;;3.26;97.78;101041.69;6243485;22;20016;-75
2022/12/28 01:25:06;;;;;;;4.20;1.02;;;;;;;3.30;97.63;101030.59;6244403;22;20012;-75
2022/12/28 01:27:32;;;;;;;2.55;1.30;;;;;;;3.36;97.26;101027.28;6242402;22;20029;-75
2022/12/28 01:29:59;;;;;;;4.80;1.33;;;;;;;3.41;96.98;101035.19;6272291;22;20304;-75
2022/12/28 01:32:25;;;;;;;4.18;1.00;;;;;;;3.43;96.50;101034.38;6244240;22;20620;-76
2022/12/28 01:34:52;;;;;;;3.20;1.23;;;;;;;3.48;96.07;101032.81;6271123;22;20233;-75
2022/12/28 01:37:18;;;;;;;2.15;1.27;;;;;;;3.53;95.95;101026.88;6270656;22;20423;-75
2022/12/28 01:39:45;;;;;;;1.73;0.88;;;;;;;3.54;95.73;101021.72;6244700;22;20319;-74
2022/12/28 01:42:17;;;;;;;4.82;1.15;;;;;;;3.57;95.35;101016.63;6243365;22;20016;-75
2022/12/28 01:44:47;;;;;;;4.55;0.95;;;;;;;3.61;95.15;101013.28;6243528;22;20019;-75
2022/12/28 01:47:21;;;;;;;5.93;1.77;;;;;;;3.66;94.96;101013.38;6243360;22;20020;-75
2022/12/28 01:50:00;;;;;;;3.55;0.90;;;;;;;3.64;95.30;100999.53;6244529;22;20300;-74
2022/12/28 01:52:52;;;;;;;2.10;0.75;;;;;;;3.64;95.21;100995.22;6270569;22;20015;-74
2022/12/28 01:55:28;;;;;;;4.03;1.48;;;;;;;3.66;95.02;100982.31;6243732;22;20061;-74
2022/12/28 01:58:02;;;;;;;2.33;1.10;;;;;;;3.67;95.06;100975.44;6243267;22;20023;-74
2022/12/28 02:00:29;;;;;;;5.97;1.10;;;;;;;3.65;94.99;100975.41;6271441;22;20016;-75
2022/12/28 02:03:05;;;;;;;11.10;1.30;;;;;;;3.61;95.50;100964.09;6242791;22;20019;-75
2022/12/28 02:05:43;;;;;;;5.15;1.17;;;;;;;3.64;95.25;100958.13;6216822;22;20080;-75
2022/12/28 02:08:22;;;;;;;2.88;0.70;;;;;;;3.64;95.21;100968.47;6213341;22;20019;-75
2022/12/28 02:10:50;;;;;;;6.78;1.20;;;;;;;3.64;95.13;100958.97;6243753;22;20015;-75
2022/12/28 02:13:18;;;;;;;3.22;0.90;;;;;;;3.66;95.54;100958.16;6243256;22;20015;-75
2022/12/28 02:15:46;;;;;;;1.52;0.60;;;;;;;3.70;95.12;100955.66;6243552;22;20028;-74
2022/12/28 02:18:15;;;;;;;4.88;1.05;;;;;;;3.72;95.48;100948.81;6242988;22;20061;-74
2022/12/28 02:21:22;;;;;;;6.40;1.35;;;;;;;3.77;95.11;100944.63;6244011;22;20026;-74
2022/12/28 02:24:15;;;;;;;4.45;0.98;;;;;;;3.86;94.99;100937.91;6271035;22;20011;-75
2022/12/28 02:26:53;;;;;;;4.47;0.80;;;;;;;3.91;94.37;100936.28;6270768;22;20015;-74
2022/12/28 02:29:29;;;;;;;7.28;1.35;;;;;;;3.94;94.73;100933.78;6218350;22;20015;-74
2022/12/28 02:32:40;;;;;;;5.60;2.35;;;;;;;3.99;94.46;100921.81;6269876;22;20018;-75
2022/12/28 02:35:29;;;;;;;2.05;1.05;;;;;;;4.03;94.65;100921.03;6218943;22;20369;-74
2022/12/28 02:38:03;;;;;;;2.50;1.25;;;;;;;4.06;94.42;100915.06;6244818;22;20015;-74
2022/12/28 02:40:40;;;;;;;6.70;1.13;;;;;;;4.10;94.08;100909.94;6271270;22;20023;-74
2022/12/28 02:43:07;;;;;;;0.95;0.70;;;;;;;4.16;93.99;100906.63;6244560;22;20497;-74
2022/12/28 02:51:52;;;;;;;1.30;0.85;;;;;;;4.34;92.77;100880.25;6249163;22;20455;-74
2022/12/28 02:58:15;;;;;;;2.05;0.77;;;;;;;4.40;92.26;100871.69;6247539;22;20068;-74
2022/12/28 03:01:27;;;;;;;4.28;0.88;;;;;;;4.41;92.41;100871.72;6270898;22;20004;-74
2022/12/28 03:04:33;;;;;;;2.97;1.45;;;;;;;4.43;92.52;100870.06;6220373;22;20015;-74
2022/12/28 03:10:23;;;;;;;5.55;2.22;;;;;;;4.43;93.16;100864.88;6146327;23;20021;-74
2022/12/28 03:13:41;;;;;;;3.33;1.25;;;;;;;4.41;93.77;100838.03;6227651;22;20512;-74
2022/12/28 03:16:07;;;;;;;2.78;1.15;;;;;;;4.44;94.32;100834.63;6248241;22;20070;-74
2022/12/28 03:32:34;;;;;;;24.48;3.83;;;;;;;4.48;94.81;100818.28;6247322;22;20015;-75
2022/12/28 03:35:00;;;;;;;3.05;1.30;;;;;;;4.45;95.78;100808.72;6243653;22;20763;-74
2022/12/28 03:37:39;;;;;;;2.75;1.80;;;;;;;4.41;96.42;100801.75;6243239;22;20004;-74
2022/12/28 03:40:21;;;;;;;5.30;1.67;;;;;;;4.45;97.02;100802.69;6219283;22;20096;-74
2022/12/28 03:45:55;;;;;;;2.42;1.05;;;;;;;4.38;98.20;100786.13;6248280;22;20008;-75
2022/12/28 03:48:23;;;;;;;4.00;1.27;;;;;;;4.35;98.89;100780.88;6245104;22;20051;-75
2022/12/28 03:50:51;;;;;;;2.53;1.30;;;;;;;4.34;99.75;100773.97;6219011;22;20016;-74
2022/12/28 03:53:26;;;;;;;5.53;1.90;;;;;;;4.31;100.00;100763.53;6243190;22;20085;-74
2022/12/28 03:55:52;;;;;;;6.97;3.20;;;;;;;4.26;100.00;100758.28;6217557;22;20027;-73
2022/12/28 03:58:21;;;;;;;7.75;2.92;;;;;;;4.23;100.00;100755.63;6243865;22;20011;-75
2022/12/28 04:00:47;;;;;;;4.32;2.53;;;;;;;4.23;100.00;100744.38;6216406;22;20365;-74
2022/12/28 04:03:14;;;;;;;8.55;1.52;;;;;;;4.19;100.00;100737.41;6216778;22;20012;-73
2022/12/28 04:05:40;;;;;;;3.20;1.75;;;;;;;4.14;100.00;100727.81;6218022;22;20026;-74
2022/12/28 04:08:07;;;;;;;3.17;2.50;;;;;;;4.14;100.00;100720.03;6242341;22;20008;-75
2022/12/28 04:10:33;;;;;;;3.42;1.63;;;;;;;4.15;100.00;100720.94;6270391;22;20012;-75
2022/12/28 04:13:00;;;;;;;3.60;1.70;;;;;;;4.18;100.00;100697.66;6242039;22;20031;-73
2022/12/28 04:15:26;;;;;;;1.80;1.55;;;;;;;4.21;100.00;100700.31;6216387;22;20026;-74
2022/12/28 04:17:52;;;;;;;3.10;1.67;;;;;;;4.25;100.00;100685.66;6216543;22;20338;-75
2022/12/28 04:20:19;;;;;;;4.05;1.45;;;;;;;4.26;100.00;100683.13;6243419;22;20706;-74
2022/12/28 04:22:45;;;;;;;2.88;1.48;;;;;;;4.32;100.00;100684.09;6242541;22;20012;-74
2022/12/28 04:25:12;;;;;;;6.70;2.42;;;;;;;4.39;100.00;100680.72;6242333;22;20083;-74
2022/12/28 04:27:38;;;;;;;3.80;1.10;;;;;;;4.44;100.00;100655.75;6241614;22;20027;-74
2022/12/28 04:30:06;;;;;;;2.40;1.15;;;;;;;4.47;100.00;100658.41;6269544;22;20019;-74
2022/12/28 04:32:32;;;;;;;1.63;1.30;;;;;;;4.50;100.00;100642.91;6267319;22;20011;-75
2022/12/28 04:34:58;;;;;;;2.80;1.42;;;;;;;4.52;100.00;100651.56;6240949;22;20019;-75
2022/12/28 04:37:25;;;;;;;2.55;1.27;;;;;;;4.52;100.00;100637.75;6241541;22;20073;-74
2022/12/28 04:39:51;;;;;;;3.00;1.08;;;;;;;4.55;100.00;100637.78;6242353;22;20027;-75
2022/12/28 04:42:18;;;;;;;2.40;1.33;;;;;;;4.53;100.00;100642.94;6269888;22;20022;-75
2022/12/28 04:44:44;;;;;;;1.45;1.30;;;;;;;4.55;100.00;100617.94;6242285;22;20016;-75
2022/12/28 04:47:11;;;;;;;6.00;1.95;;;;;;;4.52;100.00;100625.63;6215397;22;20015;-75
2022/12/28 04:49:37;;;;;;;3.53;1.58;;;;;;;4.56;100.00;100618.78;6241211;22;20012;-75
2022/12/28 04:52:03;;;;;;;2.83;1.58;;;;;;;4.59;100.00;100621.44;6241073;22;20019;-75
2022/12/28 04:54:30;;;;;;;2.83;1.55;;;;;;;4.63;100.00;100636.19;6270897;22;20031;-76
2022/12/28 04:56:56;;;;;;;3.72;1.17;;;;;;;4.65;100.00;100613.75;6244788;22;20461;-75
2022/12/28 04:59:23;;;;;;;1.80;1.20;;;;;;;4.71;100.00;100618.16;6245719;22;20078;-74
2022/12/28 05:01:49;;;;;;;3.80;2.22;;;;;;;4.74;100.00;100607.81;6271729;22;20022;-74
2022/12/28 05:04:16;;;;;;;1.75;1.08;;;;;;;4.78;100.00;100605.31;6245203;22;20513;-73
2022/12/28 05:06:42;;;;;;;1.65;1.17;;;;;;;4.91;100.00;100608.06;6244327;22;20015;-74
2022/12/28 05:09:08;;;;;;;2.42;1.70;;;;;;;4.93;100.00;100591.66;6214556;22;20070;-74
2022/12/28 05:11:35;;;;;;;1.13;1.05;;;;;;;5.06;100.00;100591.81;6216424;22;20027;-74
2022/12/28 05:14:01;;;;;;;10.35;2.67;;;;;;;5.14;99.83;100588.47;6245116;22;20047;-74
2022/12/28 05:16:29;;;;;;;2.05;1.40;;;;;;;5.18;99.56;100591.97;6273811;22;20016;-74
2022/12/28 05:18:57;;;;;;;1.15;1.02;;;;;;;5.22;99.89;100590.28;6245789;22;20023;-73
2022/12/28 05:21:26;;;;;;;2.78;1.02;;;;;;;5.21;100.00;100586.81;6244844;22;20016;-75
2022/12/28 05:23:54;;;;;;;5.90;2.92;;;;;;;5.23;100.00;100581.66;6243692;22;20020;-74
2022/12/28 05:26:27;;;;;;;3.90;1.40;;;;;;;5.23;100.00;100584.25;6218817;22;20007;-75
2022/12/28 05:28:55;;;;;;;1.30;1.20;;;;;;;5.20;100.00;100585.09;6244840;22;20022;-74
2022/12/28 05:31:22;;;;;;;2.20;1.58;;;;;;;5.21;100.00;100575.56;6218387;22;20015;-75
2022/12/28 05:33:49;;;;;;;2.53;1.33;;;;;;;5.25;100.00;100578.22;6241724;22;20014;-73
2022/12/28 05:36:25;;;;;;;2.00;1.25;;;;;;;5.21;100.00;100579.03;6243803;22;20008;-74
2022/12/28 05:38:53;;;;;;;3.45;1.58;;;;;;;5.18;100.00;100570.34;6245132;22;20046;-74
2022/12/28 05:41:26;;;;;;;3.05;1.00;;;;;;;5.13;100.00;100573.72;6271685;22;20019;-74
2022/12/28 05:43:55;;;;;;;3.13;1.50;;;;;;;5.09;100.00;100563.31;6272209;22;20011;-74
2022/12/28 05:46:26;;;;;;;4.40;1.65;;;;;;;5.09;100.00;100571.09;6244287;22;20016;-74
2022/12/28 05:48:55;;;;;;;3.83;2.00;;;;;;;5.10;100.00;100570.25;6245063;22;20016;-75
2022/12/28 05:51:24;;;;;;;3.75;2.65;;;;;;;5.10;100.00;100571.13;6243797;22;20023;-75
2022/12/28 05:53:51;;;;;;;3.97;1.83;;;;;;;5.05;100.00;100556.34;6220974;22;20016;-74
2022/12/28 05:56:27;;;;;;;3.83;2.38;;;;;;;5.03;100.00;100556.34;6244061;22;20087;-74
2022/12/28 05:59:02;;;;;;;3.35;1.80;;;;;;;5.00;100.00;100558.03;6272800;22;20069;-74
2022/12/28 06:01:32;;;;;;;3.78;2.28;;;;;;;5.01;100.00;100544.19;6219865;22;20026;-73
2022/12/28 06:04:05;;;;;;;1.95;1.77;;;;;;;4.98;100.00;100550.22;6243865;22;20023;-74
2022/12/28 06:06:33;;;;;;;1.98;1.63;;;;;;;4.97;100.00;100541.56;6242282;22;20046;-75
2022/12/28 06:09:00;;;;;;;2.30;1.88;;;;;;;4.98;100.00;100539.84;6242679;22;20082;-75
2022/12/28 06:11:29;;;;;;;3.50;1.70;;;;;;;4.95;100.00;100534.59;6242627;22;20680;-75
2022/12/28 06:14:17;;;;;;;3.08;1.65;;;;;;;4.95;100.00;100532.91;6244625;22;20022;-74
2022/12/28 06:16:44;;;;;;;3.88;1.73;;;;;;;4.95;100.00;100532.91;6215555;22;20016;-74
2022/12/28 06:19:13;;;;;;;2.50;1.65;;;;;;;4.95;100.00;100527.72;6244400;22;20018;-75
2022/12/28 06:21:40;;;;;;;4.97;1.45;;;;;;;4.95;100.00;100525.13;6218767;22;20401;-73
2022/12/28 06:24:09;;;;;;;3.10;1.77;;;;;;;4.95;100.00;100512.16;6218861;22;20016;-74
2022/12/28 06:26:39;;;;;;;3.40;1.98;;;;;;;4.94;100.00;100506.91;6243254;22;20012;-74
2022/12/28 06:29:06;;;;;;;3.67;2.65;;;;;;;4.96;100.00;100500.03;6245335;22;20018;-74
2022/12/28 06:31:38;;;;;;;4.50;1.70;;;;;;;4.94;100.00;100501.72;6243839;22;20695;-74
2022/12/28 06:34:07;;;;;;;1.35;1.35;;;;;;;4.95;100.00;100496.59;6243858;22;20047;-75
2022/12/28 06:36:43;;;;;;;3.47;1.92;;;;;;;4.94;100.00;100497.44;6243721;22;20022;-75
2022/12/28 06:39:14;;;;;;;1.98;1.73;;;;;;;4.91;100.00;100496.50;6219215;22;20012;-74
2022/12/28 06:41:41;;;;;;;1.90;1.80;;;;;;;4.90;100.00;100482.69;6243307;22;20015;-74
2022/12/28 06:44:11;;;;;;;3.53;2.30;;;;;;;4.88;100.00;100489.56;6219660;22;20095;-74
2022/12/28 06:46:38;;;;;;;3.78;1.48;;;;;;;4.89;100.00;100480.94;6243972;22;20608;-74
2022/12/28 06:49:05;;;;;;;1.98;1.88;;;;;;;4.91;100.00;100487.00;6244028;22;20016;-74
2022/12/28 06:51:37;;;;;;;3.70;1.58;;;;;;;4.93;100.00;100487.03;6243726;22;20046;-75
2022/12/28 06:54:04;;;;;;;3.33;1.70;;;;;;;4.93;100.00;100493.09;6244997;22;20022;-74
2022/12/28 06:56:34;;;;;;;1.65;1.38;;;;;;;4.94;100.00;100491.34;6243076;22;20012;-74
2022/12/28 06:59:01;;;;;;;3.83;1.40;;;;;;;4.93;100.00;100487.03;6243931;22;20422;-75
2022/12/28 07:01:32;;;;;;;2.83;1.40;;;;;;;4.95;100.00;100491.38;6243002;22;20573;-75
2022/12/28 07:04:00;;;;;;;3.28;1.75;;;;;;;4.99;100.00;100499.19;6216970;22;20023;-76
2022/12/28 07:06:29;;;;;;;2.40;1.55;;;;;;;4.98;100.00;100500.94;6217439;22;20015;-74
2022/12/28 07:09:01;;;;;;;2.55;1.73;;;;;;;4.95;100.00;100490.50;6243032;22;20057;-75
2022/12/28 07:11:28;;;;;;;4.53;2.22;;;;;;;4.97;100.00;100492.25;6242461;22;20016;-74
2022/12/28 07:13:55;;;;;;;2.00;1.55;;;;;;;4.93;100.00;100482.72;6243715;22;20015;-75
2022/12/28 07:16:23;;;;;;;4.63;1.90;;;;;;;4.91;100.00;100492.19;6242834;22;20011;-75
2022/12/28 07:18:50;;;;;;;1.92;1.77;;;;;;;4.93;100.00;100485.31;6244155;22;20019;-75
2022/12/28 07:21:23;;;;;;;4.13;2.38;;;;;;;4.94;100.00;100488.75;6243816;22;20012;-76
2022/12/28 07:23:52;;;;;;;1.70;1.60;;;;;;;4.96;100.00;100490.50;6244263;22;20050;-76
2022/12/28 07:26:22;;;;;;;1.52;1.40;;;;;;;5.00;100.00;100486.25;6217918;22;20453;-74
2022/12/28 07:28:53;;;;;;;3.10;1.70;;;;;;;4.99;100.00;100481.03;6245359;22;20338;-75
2022/12/28 07:31:23;;;;;;;2.22;1.50;;;;;;;4.99;100.00;100479.31;6242052;22;20454;-75
2022/12/28 07:33:54;;;;;;;5.28;1.45;;;;;;;5.02;100.00;100479.34;6244331;22;20443;-76
2022/12/28 07:36:22;;;;;;;1.67;1.58;;;;;;;5.08;100.00;100487.19;6218245;22;20738;-75
2022/12/28 07:38:49;;;;;;;1.42;1.33;;;;;;;5.10;100.00;100466.47;6243713;22;20454;-75
2022/12/28 07:41:19;;;;;;;1.63;1.50;;;;;;;5.14;100.00;100470.84;6243423;22;20016;-75
2022/12/28 07:43:46;;;;;;;2.47;1.17;;;;;;;5.21;100.00;100463.97;6243875;22;20008;-75
2022/12/28 07:46:16;;;;;;;0.95;0.95;;;;;;;5.24;100.00;100457.09;6217254;22;20031;-76
2022/12/28 07:48:44;;;;;;;2.08;0.98;;;;;;;5.40;100.00;100478.00;6245337;22;20019;-75
2022/12/28 07:51:13;;;;;;;2.28;1.25;;;;;;;5.37;100.00;100478.84;6243997;22;20054;-76
2022/12/28 07:53:42;;;;;;;3.28;0.98;;;;;;;5.42;100.00;100477.16;6244319;22;20722;-75
2022/12/28 07:56:11;;;;;;;2.38;1.20;;;;;;;5.46;100.00;100472.84;6218098;22;20107;-74
2022/12/28 07:58:38;;;;;;;4.15;1.40;;;;;;;5.47;100.00;100465.09;6245716;22;20062;-74
2022/12/28 08:01:14;;;;;;;3.00;1.23;;;;;;;5.49;100.00;100472.91;6244189;22;20087;-75
2022/12/28 08:03:42;;;;;;;1.33;1.17;;;;;;;5.51;100.00;100476.34;6244979;22;20015;-75
2022/12/28 08:06:18;;;;;;;1.30;1.20;;;;;;;5.58;100.00;100472.09;6244356;22;20022;-75
2022/12/28 08:08:47;;;;;;;1.60;1.42;;;;;;;5.59;100.00;100481.63;6245804;22;20087;-74
2022/12/28 08:11:21;;;;;;;1.75;1.60;;;;;;;5.60;100.00;100475.56;6243811;22;20003;-75
2022/12/28 08:13:51;;;;;;;2.00;1.60;;;;;;;5.61;100.00;100475.59;6243090;22;20020;-75
2022/12/28 08:16:19;;;;;;;1.75;1.08;;;;;;;5.63;100.00;100468.69;6243776;22;20004;-75
2022/12/28 08:18:48;;;;;;;1.45;1.20;;;;;;;5.70;100.00;100464.41;6219048;22;20802;-76
2022/12/28 08:21:18;;;;;;;1.15;1.05;;;;;;;5.71;100.00;100467.88;6243811;22;20043;-76
2022/12/28 08:23:46;;;;;;;1.85;1.20;;;;;;;5.73;100.00;100463.56;6243705;22;20022;-74
2022/12/28 08:26:15;;;;;;;4.97;1.75;;;;;;;5.75;100.00;100467.91;6242213;22;20494;-75
2022/12/28 08:28:44;;;;;;;2.67;1.05;;;;;;;5.77;100.00;100465.31;6270747;22;20016;-75
2022/12/28 08:31:34;;;;;;;1.08;0.80;;;;;;;5.74;100.00;100473.97;6244894;22;20023;-75
2022/12/28 08:34:03;;;;;;;1.75;1.58;;;;;;;5.74;100.00;100467.91;6217341;22;20043;-75
2022/12/28 08:36:30;;;;;;;1.30;1.25;;;;;;;5.75;100.00;100477.41;6245242;22;20047;-74
2022/12/28 08:38:57;;;;;;;0.95;0.93;;;;;;;5.80;100.00;100473.13;6244755;22;20366;-76
2022/12/28 08:41:27;;;;;;;1.20;1.10;;;;;;;5.85;100.00;100475.78;6218748;22;20576;-75
2022/12/28 08:43:55;;;;;;;1.65;0.73;;;;;;;5.86;100.00;100480.13;6244518;22;20020;-74
2022/12/28 08:46:27;;;;;;;1.27;0.98;;;;;;;5.88;100.00;100483.56;6270932;22;20012;-75
2022/12/28 08:48:56;;;;;;;1.77;1.50;;;;;;;5.88;100.00;100487.06;6271694;22;20066;-74
2022/12/28 08:51:42;;;;;;;1.17;1.05;;;;;;;5.92;100.00;100486.22;6218901;22;20019;-74
2022/12/28 08:57:38;;;;;;;1.33;1.13;;;;;;;5.95;100.00;100468.06;6222706;22;20676;-75
2022/12/28 09:00:06;;;;;;;1.92;1.50;;;;;;;5.97;100.00;100470.66;6242129;22;20086;-75
2022/12/28 09:02:33;;;;;;;1.55;1.08;;;;;;;5.93;100.00;100469.78;6242238;22;20019;-74
2022/12/28 09:04:59;;;;;;;1.45;1.17;;;;;;;5.94;100.00;100476.72;6243058;22;20087;-74
2022/12/28 09:07:25;;;;;;;1.02;0.77;;;;;;;5.97;100.00;100473.25;6242585;22;20012;-74
2022/12/28 09:09:52;;;;;;;3.22;1.75;;;;;;;6.03;100.00;100485.47;6241927;22;20390;-74
2022/12/28 09:12:18;;;;;;;3.00;1.00;;;;;;;6.01;100.00;100480.28;6214706;22;20561;-74
2022/12/28 09:14:45;;;;;;;1.77;1.10;;;;;;;6.01;100.00;100481.97;6243092;22;20020;-75
2022/12/28 09:17:11;;;;;;;1.20;1.10;;;;;;;6.03;100.00;100477.69;6242896;22;20011;-75
2022/12/28 09:19:38;;;;;;;2.10;1.40;;;;;;;6.05;100.00;100479.44;6244181;22;20028;-75
2022/12/28 09:22:04;;;;;;;1.48;1.30;;;;;;;6.08;100.00;100483.78;6217414;22;20481;-74
2022/12/28 09:24:31;;;;;;;1.27;1.23;;;;;;;6.09;100.00;100482.91;6217803;22;20012;-76
2022/12/28 09:26:57;;;;;;;1.73;1.25;;;;;;;6.12;100.00;100480.31;6240238;22;20066;-73
2022/12/28 09:29:23;;;;;;;1.70;1.60;;;;;;;6.16;100.00;100478.63;6241603;22;20019;-75
2022/12/28 09:31:50;;;;;;;2.28;1.25;;;;;;;6.15;100.00;100482.06;6241660;22;20015;-74
2022/12/28 09:34:17;;;;;;;1.23;1.13;;;;;;;6.16;100.00;100481.22;6216071;22;20030;-75
2022/12/28 09:36:44;;;;;;;1.98;1.08;;;;;;;6.22;100.00;100486.44;6240944;22;20041;-74
2022/12/28 09:39:17;;;;;;;0.80;0.80;;;;;;;6.25;100.00;100484.75;6268217;22;20297;-75
2022/12/28 09:42:14;;;;;;;2.30;1.38;;;;;;;6.28;100.00;100492.56;6215183;22;20419;-74
2022/12/28 09:45:03;;;;;;;2.25;1.60;;;;;;;6.32;100.00;100483.03;6244383;22;20442;-75
2022/12/28 09:47:44;;;;;;;1.33;1.23;;;;;;;6.37;100.00;100476.13;6243788;22;20826;-74
2022/12/28 09:50:31;;;;;;;2.40;1.13;;;;;;;6.45;100.00;100478.78;6245073;22;20016;-75
2022/12/28 09:53:30;;;;;;;1.25;1.15;;;;;;;6.49;100.00;100480.53;6243652;22;20020;-74
2022/12/28 09:56:04;;;;;;;1.40;1.30;;;;;;;6.56;100.00;100474.50;6242933;22;20039;-75
2022/12/28 09:58:34;;;;;;;2.83;1.20;;;;;;;6.65;100.00;100483.19;6271973;22;20016;-75
2022/12/28 10:01:03;;;;;;;1.85;1.17;;;;;;;6.71;100.00;100476.28;6244882;22;20024;-74
2022/12/28 10:03:39;;;;;;;1.75;1.10;;;;;;;6.74;100.00;100465.03;6244576;22;20326;-74
2022/12/28 10:06:14;;;;;;;1.33;1.23;;;;;;;6.79;100.00;100469.41;6243998;22;20043;-75
2022/12/28 10:08:48;;;;;;;1.05;1.00;;;;;;;6.82;100.00;100465.06;6219326;22;20015;-74
2022/12/28 10:11:18;;;;;;;;;;;;;;;6.86;100.00;100467.69;6245621;22;20330;-76
2022/12/28 10:13:45;;;;;;;4.40;1.27;;;;;;;6.89;100.00;100462.47;6244898;22;20033;-75
2022/12/28 10:16:18;;;;;;;1.30;1.17;;;;;;;6.90;100.00;100453.81;6244341;22;20016;-77
2022/12/28 10:18:46;;;;;;;1.42;1.35;;;;;;;6.94;100.00;100462.50;6245424;22;20500;-75
2022/12/28 10:21:14;;;;;;;1.10;1.10;;;;;;;6.98;100.00;100456.44;6244407;22;20038;-76
2022/12/28 10:23:43;;;;;;;1.52;1.20;;;;;;;7.05;100.00;100458.22;6244692;22;20011;-75
2022/12/28 10:26:16;;;;;;;0.82;0.80;;;;;;;7.13;100.00;100458.19;6244529;22;20018;-77
2022/12/28 10:28:58;;;;;;;2.13;0.98;;;;;;;7.19;100.00;100455.63;6219548;22;20423;-75
2022/12/28 10:31:38;;;;;;;3.00;1.33;;;;;;;7.23;100.00;100449.53;6218725;22;20118;-74
2022/12/28 10:34:19;;;;;;;0.82;0.82;;;;;;;7.27;100.00;100445.22;6244674;22;20724;-76
2022/12/28 10:36:48;;;;;;;1.23;1.00;;;;;;;7.34;100.00;100451.28;6243890;22;20051;-75
2022/12/28 10:39:23;;;;;;;0.90;0.90;;;;;;;7.35;100.00;100453.03;6244006;22;20008;-75
2022/12/28 10:41:53;;;;;;;2.35;1.25;;;;;;;7.35;100.00;100445.22;6244805;22;20008;-74
2022/12/28 10:44:29;;;;;;;1.70;1.10;;;;;;;7.34;100.00;100444.38;6244652;22;20019;-77
2022/12/28 10:47:03;;;;;;;0.85;0.85;;;;;;;7.34;100.00;100439.16;6244296;22;20065;-75
2022/12/28 10:49:38;;;;;;;4.97;0.95;;;;;;;7.33;100.00;100433.97;6271591;22;20016;-74
2022/12/28 10:52:18;;;;;;;2.97;1.13;;;;;;;7.32;100.00;100437.41;6243280;22;20153;-75
2022/12/28 10:54:45;;;;;;;0.90;0.75;;;;;;;7.34;100.00;100439.16;6245797;22;20090;-74
2022/12/28 10:57:21;;;;;;;1.35;1.05;;;;;;;7.29;100.00;100430.47;6244850;22;20491;-75
2022/12/28 10:59:49;;;;;;;1.02;0.95;;;;;;;7.29;100.00;100436.53;6246101;22;20019;-74
2022/12/28 11:02:31;;;;;;;2.78;0.80;;;;;;;7.27;100.00;100425.28;6218251;22;20023;-75
2022/12/28 11:05:21;;;;;;;0.55;0.55;;;;;;;7.29;100.00;100427.88;6244491;22;20073;-75
2022/12/28 11:07:49;;;;;;;1.23;0.60;;;;;;;7.25;100.00;100432.19;6220963;22;20016;-75
2022/12/28 11:10:25;;;;;;;0.60;0.60;;;;;;;7.25;100.00;100421.78;6220555;22;20734;-75
2022/12/28 11:13:00;;;;;;;5.20;1.00;;;;;;;7.24;100.00;100422.66;6244954;22;20022;-74
2022/12/28 11:15:33;;;;;;;1.40;0.90;;;;;;;7.24;100.00;100425.25;6219709;22;20012;-75
2022/12/28 11:18:11;;;;;;;0.95;0.70;;;;;;;7.21;100.00;100429.56;6245027;22;20080;-76
2022/12/28 11:20:43;;;;;;;1.65;1.10;;;;;;;7.18;100.00;100417.44;6244557;22;20025;-75
2022/12/28 11:23:18;;;;;;;1.45;0.60;;;;;;;7.20;100.00;100415.69;6218481;22;20016;-75
2022/12/28 11:25:45;;;;;;;0.68;0.68;;;;;;;7.20;100.00;100413.09;6219428;22;20012;-74
2022/12/28 11:28:21;;;;;;;1.08;0.80;;;;;;;7.19;100.00;100413.09;6243983;22;20019;-74
2022/12/28 11:30:50;;;;;;;0.70;0.70;;;;;;;7.19;100.00;100413.97;6244411;22;20024;-75
2022/12/28 11:33:41;;;;;;;0.70;0.70;;;;;;;7.19;100.00;100415.72;6241580;22;20026;-77
2022/12/28 11:36:17;;;;;;;0.70;0.70;;;;;;;7.17;100.00;100410.50;6242529;22;20022;-75
2022/12/28 11:38:49;;;;;;;2.22;0.73;;;;;;;7.12;100.00;100415.69;6245066;22;20117;-75
2022/12/28 11:41:26;;;;;;;0.60;0.60;;;;;;;7.15;100.00;100406.16;6244382;22;20023;-76
2022/12/28 11:43:57;;;;;;;0.80;0.80;;;;;;;7.15;100.00;100407.03;6271917;22;20122;-75
2022/12/28 11:46:24;;;;;;;0.50;0.50;;;;;;;7.16;100.00;100411.38;6244058;22;20023;-75
2022/12/28 11:49:02;;;;;;;1.33;0.60;;;;;;;7.13;100.00;100400.94;6272302;22;20061;-75
2022/12/28 11:51:29;;;;;;;0.30;0.30;;;;;;;7.15;100.00;100395.75;6243623;22;20018;-74
2022/12/28 11:53:59;;;;;;;1.58;0.43;;;;;;;7.14;100.00;100396.63;6244916;22;20016;-74
2022/12/28 11:56:36;;;;;;;1.83;0.60;;;;;;;7.15;100.00;100394.00;6242590;22;20023;-74
2022/12/28 11:59:10;;;;;;;0.70;0.70;;;;;;;7.15;100.00;100381.00;6270423;22;20103;-74
2022/12/28 12:01:39;;;;;;;0.32;0.30;;;;;;;7.16;100.00;100385.34;6242245;22;20267;-75
2022/12/28 12:04:08;;;;;;;0.68;0.65;;;;;;;7.16;100.00;100387.06;6243265;22;20067;-76
2022/12/28 12:06:41;;;;;;;0.98;0.70;;;;;;;7.17;100.00;100381.88;6246506;22;20015;-74
2022/12/28 12:09:23;;;;;;;0.70;0.50;;;;;;;7.13;100.00;100390.53;6273193;22;20008;-74
2022/12/28 12:11:55;;;;;;;0.40;0.40;;;;;;;7.10;100.00;100385.31;6273523;22;20012;-75
2022/12/28 12:14:35;;;;;;;1.55;0.60;;;;;;;7.07;100.00;100380.97;6220856;22;20307;-75
2022/12/28 12:17:22;;;;;;;0.75;0.65;;;;;;;7.07;100.00;100375.78;6245351;22;20075;-74
2022/12/28 12:19:55;;;;;;;1.10;0.50;;;;;;;7.10;100.00;100372.31;6244730;22;20747;-75